sensor_id;sensor_type;location;lat;lon;timestamp;temperature;humidity
74869;DHT22;63419;42.262;12.210;2022-11-11T00:00:09;11.90;99.90
74869;DHT22;63419;42.262;12.210;2022-11-11T00:02:37;11.90;99.90
74869;DHT22;63419;42.262;12.210;2022-11-11T00:05:04;12.00;99.90
74869;DHT22;63419;42.262;12.210;2022-11-11T00:07:34;12.10;99.90
74869;DHT22;63419;42.262;12.210;2022-11-11T00:10:02;12.20;99.90
74869;DHT22;63419;42.262;12.210;2022-11-11T00:12:32;12.30;99.90
74869;DHT22;63419;42.262;12.210;2022-11-11T00:15:03;12.30;99.90
74869;DHT22;63419;42.262;12.210;2022-11-11T00:17:34;12.30;99.90
74869;DHT22;63419;42.262;12.210;2022-11-11T00:20:20;12.30;99.90
74869;DHT22;63419;42.262;12.210;2022-11-11T00:23:22;12.30;99.90
74869;DHT22;63419;42.262;12.210;2022-11-11T00:26:13;12.30;99.90
74869;DHT22;63419;42.262;12.210;2022-11-11T00:29:05;12.10;99.90
74869;DHT22;63419;42.262;12.210;2022-11-11T00:31:35;12.00;99.90
74869;DHT22;63419;42.262;12.210;2022-11-11T00:34:22;11.90;99.90
74869;DHT22;63419;42.262;12.210;2022-11-11T00:36:55;11.70;99.90
74869;DHT22;63419;42.262;12.210;2022-11-11T00:39:22;11.60;99.90
74869;DHT22;63419;42.262;12.210;2022-11-11T00:41:49;11.50;99.90
74869;DHT22;63419;42.262;12.210;2022-11-11T00:44:16;11.50;99.90
74869;DHT22;63419;42.262;12.210;2022-11-11T00:46:45;11.50;99.90
74869;DHT22;63419;42.262;12.210;2022-11-11T00:49:34;11.50;99.90
74869;DHT22;63419;42.262;12.210;2022-11-11T00:52:20;11.40;99.90
74869;DHT22;63419;42.262;12.210;2022-11-11T00:54:47;11.30;99.90
74869;DHT22;63419;42.262;12.210;2022-11-11T00:57:14;11.30;99.90
74869;DHT22;63419;42.262;12.210;2022-11-11T00:59:41;11.30;99.90
74869;DHT22;63419;42.262;12.210;2022-11-11T01:02:09;11.30;99.90
74869;DHT22;63419;42.262;12.210;2022-11-11T01:04:42;11.20;99.90
74869;DHT22;63419;42.262;12.210;2022-11-11T01:07:11;11.20;99.90
74869;DHT22;63419;42.262;12.210;2022-11-11T01:09:38;11.20;99.90
74869;DHT22;63419;42.262;12.210;2022-11-11T01:12:06;11.10;99.90
74869;DHT22;63419;42.262;12.210;2022-11-11T01:14:38;11.20;99.90
74869;DHT22;63419;42.262;12.210;2022-11-11T01:17:12;11.30;99.90
74869;DHT22;63419;42.262;12.210;2022-11-11T01:19:39;11.20;99.90
74869;DHT22;63419;42.262;12.210;2022-11-11T01:22:10;11.40;99.90
74869;DHT22;63419;42.262;12.210;2022-11-11T01:24:37;11.20;99.90
74869;DHT22;63419;42.262;12.210;2022-11-11T01:27:05;11.10;99.90
74869;DHT22;63419;42.262;12.210;2022-11-11T01:29:32;10.90;99.90
74869;DHT22;63419;42.262;12.210;2022-11-11T01:31:59;10.80;99.90
74869;DHT22;63419;42.262;12.210;2022-11-11T01:34:29;10.70;99.90
74869;DHT22;63419;42.262;12.210;2022-11-11T01:36:56;10.90;99.90
74869;DHT22;63419;42.262;12.210;2022-11-11T01:39:24;10.90;99.90
74869;DHT22;63419;42.262;12.210;2022-11-11T01:41:54;10.90;99.90
74869;DHT22;63419;42.262;12.210;2022-11-11T01:45:00;11.10;99.90
74869;DHT22;63419;42.262;12.210;2022-11-11T01:47:27;11.20;99.90
74869;DHT22;63419;42.262;12.210;2022-11-11T01:50:36;11.40;99.90
74869;DHT22;63419;42.262;12.210;2022-11-11T01:53:06;11.40;99.90
74869;DHT22;63419;42.262;12.210;2022-11-11T01:55:33;11.50;99.90
74869;DHT22;63419;42.262;12.210;2022-11-11T01:58:10;11.50;99.90
74869;DHT22;63419;42.262;12.210;2022-11-11T02:00:41;11.50;99.90
74869;DHT22;63419;42.262;12.210;2022-11-11T02:03:11;11.40;99.90
74869;DHT22;63419;42.262;12.210;2022-11-11T02:05:52;11.50;99.90
74869;DHT22;63419;42.262;12.210;2022-11-11T02:08:36;11.50;99.90
74869;DHT22;63419;42.262;12.210;2022-11-11T02:11:13;11.50;99.90
74869;DHT22;63419;42.262;12.210;2022-11-11T02:14:30;11.40;99.90
74869;DHT22;63419;42.262;12.210;2022-11-11T02:17:10;11.40;99.90
74869;DHT22;63419;42.262;12.210;2022-11-11T02:19:59;11.50;99.90
74869;DHT22;63419;42.262;12.210;2022-11-11T02:23:10;10.90;99.90
74869;DHT22;63419;42.262;12.210;2022-11-11T02:25:46;10.20;99.90
74869;DHT22;63419;42.262;12.210;2022-11-11T02:28:18;10.10;99.90
74869;DHT22;63419;42.262;12.210;2022-11-11T02:30:51;10.00;99.90
74869;DHT22;63419;42.262;12.210;2022-11-11T02:33:19;10.00;99.90
74869;DHT22;63419;42.262;12.210;2022-11-11T02:35:51;10.10;99.90
74869;DHT22;63419;42.262;12.210;2022-11-11T02:38:43;10.20;99.90
74869;DHT22;63419;42.262;12.210;2022-11-11T02:41:16;10.20;99.90
74869;DHT22;63419;42.262;12.210;2022-11-11T02:44:08;10.30;99.90
74869;DHT22;63419;42.262;12.210;2022-11-11T02:46:38;10.20;99.90
74869;DHT22;63419;42.262;12.210;2022-11-11T02:49:20;10.20;99.90
74869;DHT22;63419;42.262;12.210;2022-11-11T02:52:02;10.20;99.90
74869;DHT22;63419;42.262;12.210;2022-11-11T02:54:35;10.30;99.90
74869;DHT22;63419;42.262;12.210;2022-11-11T02:57:13;10.30;99.90
74869;DHT22;63419;42.262;12.210;2022-11-11T02:59:56;10.30;99.90
74869;DHT22;63419;42.262;12.210;2022-11-11T03:02:30;10.30;99.90
74869;DHT22;63419;42.262;12.210;2022-11-11T03:05:00;10.20;99.90
74869;DHT22;63419;42.262;12.210;2022-11-11T03:07:57;10.20;99.90
74869;DHT22;63419;42.262;12.210;2022-11-11T03:10:50;10.10;99.90
74869;DHT22;63419;42.262;12.210;2022-11-11T03:13:18;10.20;99.90
74869;DHT22;63419;42.262;12.210;2022-11-11T03:15:51;10.10;99.90
74869;DHT22;63419;42.262;12.210;2022-11-11T03:18:30;10.00;99.90
74869;DHT22;63419;42.262;12.210;2022-11-11T03:21:03;10.00;99.90
74869;DHT22;63419;42.262;12.210;2022-11-11T03:24:01;9.90;99.90
74869;DHT22;63419;42.262;12.210;2022-11-11T03:26:50;10.00;99.90
74869;DHT22;63419;42.262;12.210;2022-11-11T03:29:28;10.00;99.90
74869;DHT22;63419;42.262;12.210;2022-11-11T03:32:07;10.00;99.90
74869;DHT22;63419;42.262;12.210;2022-11-11T03:34:43;10.00;99.90
74869;DHT22;63419;42.262;12.210;2022-11-11T03:37:21;10.00;99.90
74869;DHT22;63419;42.262;12.210;2022-11-11T03:40:23;9.90;99.90
74869;DHT22;63419;42.262;12.210;2022-11-11T03:43:00;10.00;99.90
74869;DHT22;63419;42.262;12.210;2022-11-11T03:45:50;10.00;99.90
74869;DHT22;63419;42.262;12.210;2022-11-11T03:48:21;10.00;99.90
74869;DHT22;63419;42.262;12.210;2022-11-11T03:50:58;10.20;99.90
74869;DHT22;63419;42.262;12.210;2022-11-11T03:53:26;10.30;99.90
74869;DHT22;63419;42.262;12.210;2022-11-11T03:55:55;10.30;99.90
74869;DHT22;63419;42.262;12.210;2022-11-11T03:58:29;10.50;99.90
74869;DHT22;63419;42.262;12.210;2022-11-11T04:01:08;11.00;99.90
74869;DHT22;63419;42.262;12.210;2022-11-11T04:04:09;11.30;99.90
74869;DHT22;63419;42.262;12.210;2022-11-11T04:06:59;11.60;99.90
74869;DHT22;63419;42.262;12.210;2022-11-11T04:09:47;11.40;99.90
74869;DHT22;63419;42.262;12.210;2022-11-11T04:12:35;11.40;99.90
74869;DHT22;63419;42.262;12.210;2022-11-11T04:15:24;11.50;99.90
74869;DHT22;63419;42.262;12.210;2022-11-11T04:18:14;11.50;99.90
74869;DHT22;63419;42.262;12.210;2022-11-11T04:20:47;11.80;99.90
74869;DHT22;63419;42.262;12.210;2022-11-11T04:23:35;11.80;99.90
74869;DHT22;63419;42.262;12.210;2022-11-11T04:26:09;11.90;99.90
74869;DHT22;63419;42.262;12.210;2022-11-11T04:28:37;12.30;99.90
74869;DHT22;63419;42.262;12.210;2022-11-11T04:31:26;12.30;99.90
74869;DHT22;63419;42.262;12.210;2022-11-11T04:33:56;12.30;99.90
74869;DHT22;63419;42.262;12.210;2022-11-11T04:36:27;12.20;99.90
74869;DHT22;63419;42.262;12.210;2022-11-11T04:38:55;12.10;99.90
74869;DHT22;63419;42.262;12.210;2022-11-11T04:41:41;12.10;99.90
74869;DHT22;63419;42.262;12.210;2022-11-11T04:44:34;12.30;99.90
74869;DHT22;63419;42.262;12.210;2022-11-11T04:47:22;12.40;99.90
74869;DHT22;63419;42.262;12.210;2022-11-11T04:49:54;12.60;99.90
74869;DHT22;63419;42.262;12.210;2022-11-11T04:52:25;12.70;99.90
74869;DHT22;63419;42.262;12.210;2022-11-11T04:54:57;12.70;99.90
74869;DHT22;63419;42.262;12.210;2022-11-11T04:57:53;12.60;99.90
74869;DHT22;63419;42.262;12.210;2022-11-11T05:00:25;12.50;99.90
74869;DHT22;63419;42.262;12.210;2022-11-11T05:02:57;12.50;99.90
74869;DHT22;63419;42.262;12.210;2022-11-11T05:05:57;12.50;99.90
74869;DHT22;63419;42.262;12.210;2022-11-11T05:08:50;12.50;99.90
74869;DHT22;63419;42.262;12.210;2022-11-11T05:11:35;12.60;99.90
74869;DHT22;63419;42.262;12.210;2022-11-11T05:14:12;12.50;99.90
74869;DHT22;63419;42.262;12.210;2022-11-11T05:17:04;12.50;99.90
74869;DHT22;63419;42.262;12.210;2022-11-11T05:19:51;12.60;99.90
74869;DHT22;63419;42.262;12.210;2022-11-11T05:22:42;12.50;99.90
74869;DHT22;63419;42.262;12.210;2022-11-11T05:25:25;12.50;99.90
74869;DHT22;63419;42.262;12.210;2022-11-11T05:28:04;12.50;99.90
74869;DHT22;63419;42.262;12.210;2022-11-11T05:30:38;12.50;99.90
74869;DHT22;63419;42.262;12.210;2022-11-11T05:33:20;12.50;99.90
74869;DHT22;63419;42.262;12.210;2022-11-11T05:35:53;12.40;99.90
74869;DHT22;63419;42.262;12.210;2022-11-11T05:38:22;12.30;99.90
74869;DHT22;63419;42.262;12.210;2022-11-11T05:40:54;12.30;99.90
74869;DHT22;63419;42.262;12.210;2022-11-11T05:43:21;12.40;99.90
74869;DHT22;63419;42.262;12.210;2022-11-11T05:45:49;12.40;99.90
74869;DHT22;63419;42.262;12.210;2022-11-11T05:48:16;12.30;99.90
74869;DHT22;63419;42.262;12.210;2022-11-11T05:50:43;12.40;99.90
74869;DHT22;63419;42.262;12.210;2022-11-11T05:53:14;12.40;99.90
74869;DHT22;63419;42.262;12.210;2022-11-11T05:55:41;12.40;99.90
74869;DHT22;63419;42.262;12.210;2022-11-11T05:58:08;12.40;99.90
74869;DHT22;63419;42.262;12.210;2022-11-11T06:00:43;12.50;99.90
74869;DHT22;63419;42.262;12.210;2022-11-11T06:03:21;12.40;99.90
74869;DHT22;63419;42.262;12.210;2022-11-11T06:05:51;12.40;99.90
74869;DHT22;63419;42.262;12.210;2022-11-11T06:08:20;12.50;99.90
74869;DHT22;63419;42.262;12.210;2022-11-11T06:10:52;12.60;99.90
74869;DHT22;63419;42.262;12.210;2022-11-11T06:13:22;12.60;99.90
74869;DHT22;63419;42.262;12.210;2022-11-11T06:15:49;12.60;99.90
74869;DHT22;63419;42.262;12.210;2022-11-11T06:18:20;12.70;99.90
74869;DHT22;63419;42.262;12.210;2022-11-11T06:20:54;12.80;99.90
74869;DHT22;63419;42.262;12.210;2022-11-11T06:23:24;12.90;99.90
74869;DHT22;63419;42.262;12.210;2022-11-11T06:25:54;12.90;99.90
74869;DHT22;63419;42.262;12.210;2022-11-11T06:28:41;12.90;99.90
74869;DHT22;63419;42.262;12.210;2022-11-11T06:31:17;13.00;99.90
74869;DHT22;63419;42.262;12.210;2022-11-11T06:33:58;13.00;99.90
74869;DHT22;63419;42.262;12.210;2022-11-11T06:36:30;13.00;99.90
74869;DHT22;63419;42.262;12.210;2022-11-11T06:39:00;13.10;99.90
74869;DHT22;63419;42.262;12.210;2022-11-11T06:41:30;13.20;99.90
74869;DHT22;63419;42.262;12.210;2022-11-11T06:43:58;13.20;99.90
74869;DHT22;63419;42.262;12.210;2022-11-11T06:46:31;13.30;99.90
74869;DHT22;63419;42.262;12.210;2022-11-11T06:49:06;13.30;99.90
74869;DHT22;63419;42.262;12.210;2022-11-11T06:51:34;13.40;99.90
74869;DHT22;63419;42.262;12.210;2022-11-11T06:54:01;13.40;99.90
74869;DHT22;63419;42.262;12.210;2022-11-11T06:56:32;13.50;99.90
74869;DHT22;63419;42.262;12.210;2022-11-11T06:59:01;13.60;99.90
74869;DHT22;63419;42.262;12.210;2022-11-11T07:01:31;13.70;99.90
74869;DHT22;63419;42.262;12.210;2022-11-11T07:04:02;13.80;99.90
74869;DHT22;63419;42.262;12.210;2022-11-11T07:06:29;13.90;99.90
74869;DHT22;63419;42.262;12.210;2022-11-11T07:08:57;14.00;99.90
74869;DHT22;63419;42.262;12.210;2022-11-11T07:11:30;14.00;99.90
74869;DHT22;63419;42.262;12.210;2022-11-11T07:13:57;14.10;99.90
74869;DHT22;63419;42.262;12.210;2022-11-11T07:16:28;14.10;99.90
74869;DHT22;63419;42.262;12.210;2022-11-11T07:18:59;14.20;99.90
74869;DHT22;63419;42.262;12.210;2022-11-11T07:21:27;14.30;99.90
74869;DHT22;63419;42.262;12.210;2022-11-11T07:23:56;14.40;99.90
74869;DHT22;63419;42.262;12.210;2022-11-11T07:26:24;14.50;99.90
74869;DHT22;63419;42.262;12.210;2022-11-11T07:28:59;14.60;99.90
74869;DHT22;63419;42.262;12.210;2022-11-11T07:31:30;14.60;99.90
74869;DHT22;63419;42.262;12.210;2022-11-11T07:33:59;14.70;99.90
74869;DHT22;63419;42.262;12.210;2022-11-11T07:36:35;14.80;99.90
74869;DHT22;63419;42.262;12.210;2022-11-11T07:39:03;14.90;99.90
74869;DHT22;63419;42.262;12.210;2022-11-11T07:41:37;15.00;99.90
74869;DHT22;63419;42.262;12.210;2022-11-11T07:44:04;15.10;99.90
74869;DHT22;63419;42.262;12.210;2022-11-11T07:46:33;15.20;99.90
74869;DHT22;63419;42.262;12.210;2022-11-11T07:49:07;15.30;99.90
74869;DHT22;63419;42.262;12.210;2022-11-11T07:51:41;15.30;99.90
74869;DHT22;63419;42.262;12.210;2022-11-11T07:54:11;15.40;99.90
74869;DHT22;63419;42.262;12.210;2022-11-11T07:56:51;15.50;99.90
74869;DHT22;63419;42.262;12.210;2022-11-11T07:59:20;15.50;99.90
74869;DHT22;63419;42.262;12.210;2022-11-11T08:01:50;15.60;99.90
74869;DHT22;63419;42.262;12.210;2022-11-11T08:04:17;15.70;99.90
74869;DHT22;63419;42.262;12.210;2022-11-11T08:06:44;15.80;99.90
74869;DHT22;63419;42.262;12.210;2022-11-11T08:09:14;16.00;99.90
74869;DHT22;63419;42.262;12.210;2022-11-11T08:11:43;16.10;99.90
74869;DHT22;63419;42.262;12.210;2022-11-11T08:14:33;16.20;99.90
74869;DHT22;63419;42.262;12.210;2022-11-11T08:17:03;16.20;99.90
74869;DHT22;63419;42.262;12.210;2022-11-11T08:19:36;16.30;99.90
74869;DHT22;63419;42.262;12.210;2022-11-11T08:22:03;16.50;99.90
74869;DHT22;63419;42.262;12.210;2022-11-11T08:24:31;16.50;99.90
74869;DHT22;63419;42.262;12.210;2022-11-11T08:27:23;16.60;99.90
74869;DHT22;63419;42.262;12.210;2022-11-11T08:29:50;16.60;99.90
74869;DHT22;63419;42.262;12.210;2022-11-11T08:32:17;16.70;99.90
74869;DHT22;63419;42.262;12.210;2022-11-11T08:34:47;16.90;99.90
74869;DHT22;63419;42.262;12.210;2022-11-11T08:37:18;17.00;99.90
74869;DHT22;63419;42.262;12.210;2022-11-11T08:39:46;17.10;99.90
74869;DHT22;63419;42.262;12.210;2022-11-11T08:42:20;17.20;99.90
74869;DHT22;63419;42.262;12.210;2022-11-11T08:44:54;17.20;99.90
74869;DHT22;63419;42.262;12.210;2022-11-11T08:47:21;17.40;99.90
74869;DHT22;63419;42.262;12.210;2022-11-11T08:49:55;17.40;99.90
74869;DHT22;63419;42.262;12.210;2022-11-11T08:52:24;17.50;99.90
74869;DHT22;63419;42.262;12.210;2022-11-11T08:54:55;17.60;99.90
74869;DHT22;63419;42.262;12.210;2022-11-11T08:57:25;17.70;99.90
74869;DHT22;63419;42.262;12.210;2022-11-11T08:59:57;17.80;99.90
74869;DHT22;63419;42.262;12.210;2022-11-11T09:02:30;17.90;99.90
74869;DHT22;63419;42.262;12.210;2022-11-11T09:05:04;18.00;99.90
74869;DHT22;63419;42.262;12.210;2022-11-11T09:07:35;18.00;99.90
74869;DHT22;63419;42.262;12.210;2022-11-11T09:10:10;18.10;99.90
74869;DHT22;63419;42.262;12.210;2022-11-11T09:12:38;18.20;99.90
74869;DHT22;63419;42.262;12.210;2022-11-11T09:15:06;18.10;99.90
74869;DHT22;63419;42.262;12.210;2022-11-11T09:17:35;18.30;99.90
74869;DHT22;63419;42.262;12.210;2022-11-11T09:20:10;18.30;99.90
74869;DHT22;63419;42.262;12.210;2022-11-11T09:22:44;18.40;99.90
74869;DHT22;63419;42.262;12.210;2022-11-11T09:25:23;18.60;99.90
74869;DHT22;63419;42.262;12.210;2022-11-11T09:27:55;18.70;99.90
74869;DHT22;63419;42.262;12.210;2022-11-11T09:30:24;18.70;99.90
74869;DHT22;63419;42.262;12.210;2022-11-11T09:32:53;18.70;99.90
74869;DHT22;63419;42.262;12.210;2022-11-11T09:35:28;18.80;99.90
74869;DHT22;63419;42.262;12.210;2022-11-11T09:38:04;18.80;99.90
74869;DHT22;63419;42.262;12.210;2022-11-11T09:41:14;18.80;99.90
74869;DHT22;63419;42.262;12.210;2022-11-11T09:43:58;19.00;99.90
74869;DHT22;63419;42.262;12.210;2022-11-11T09:56:11;19.50;99.90
74869;DHT22;63419;42.262;12.210;2022-11-11T10:02:04;20.00;99.90
74869;DHT22;63419;42.262;12.210;2022-11-11T10:07:23;20.40;99.90
74869;DHT22;63419;42.262;12.210;2022-11-11T10:10:20;20.80;99.90
74869;DHT22;63419;42.262;12.210;2022-11-11T10:13:31;20.60;99.90
74869;DHT22;63419;42.262;12.210;2022-11-11T10:19:33;20.80;99.90
74869;DHT22;63419;42.262;12.210;2022-11-11T10:22:22;20.70;99.90
74869;DHT22;63419;42.262;12.210;2022-11-11T10:28:00;20.70;99.90
74869;DHT22;63419;42.262;12.210;2022-11-11T10:30:32;20.90;99.90
74869;DHT22;63419;42.262;12.210;2022-11-11T10:33:26;20.80;99.90
74869;DHT22;63419;42.262;12.210;2022-11-11T10:36:00;21.10;99.90
74869;DHT22;63419;42.262;12.210;2022-11-11T10:38:44;21.30;99.90
74869;DHT22;63419;42.262;12.210;2022-11-11T10:41:37;21.20;99.90
74869;DHT22;63419;42.262;12.210;2022-11-11T10:44:28;21.00;99.90
74869;DHT22;63419;42.262;12.210;2022-11-11T10:52:57;21.60;99.90
74869;DHT22;63419;42.262;12.210;2022-11-11T10:58:57;22.40;99.90
74869;DHT22;63419;42.262;12.210;2022-11-11T11:01:48;22.70;99.90
74869;DHT22;63419;42.262;12.210;2022-11-11T11:04:32;22.70;99.90
74869;DHT22;63419;42.262;12.210;2022-11-11T11:07:44;22.60;99.90
74869;DHT22;63419;42.262;12.210;2022-11-11T11:10:23;22.40;99.90
74869;DHT22;63419;42.262;12.210;2022-11-11T11:16:03;23.20;99.90
74869;DHT22;63419;42.262;12.210;2022-11-11T11:18:35;23.50;99.90
74869;DHT22;63419;42.262;12.210;2022-11-11T11:21:08;23.70;99.90
74869;DHT22;63419;42.262;12.210;2022-11-11T11:23:43;23.90;99.90
74869;DHT22;63419;42.262;12.210;2022-11-11T11:26:13;24.00;99.90
74869;DHT22;63419;42.262;12.210;2022-11-11T11:28:59;24.10;99.90
74869;DHT22;63419;42.262;12.210;2022-11-11T11:31:39;24.00;99.90
74869;DHT22;63419;42.262;12.210;2022-11-11T11:34:09;24.10;99.90
74869;DHT22;63419;42.262;12.210;2022-11-11T11:36:42;23.80;99.90
74869;DHT22;63419;42.262;12.210;2022-11-11T11:39:34;24.00;99.90
74869;DHT22;63419;42.262;12.210;2022-11-11T11:42:05;24.50;99.90
74869;DHT22;63419;42.262;12.210;2022-11-11T11:44:36;24.80;99.90
74869;DHT22;63419;42.262;12.210;2022-11-11T11:47:28;24.50;99.30
74869;DHT22;63419;42.262;12.210;2022-11-11T11:52:57;24.40;99.90
74869;DHT22;63419;42.262;12.210;2022-11-11T12:11:53;25.50;97.60
74869;DHT22;63419;42.262;12.210;2022-11-11T12:14:49;24.70;98.50
74869;DHT22;63419;42.262;12.210;2022-11-11T12:30:17;25.10;97.90
74869;DHT22;63419;42.262;12.210;2022-11-11T12:39:09;24.50;98.40
74869;DHT22;63419;42.262;12.210;2022-11-11T12:42:14;25.00;97.90
74869;DHT22;63419;42.262;12.210;2022-11-11T12:45:00;25.00;97.30
74869;DHT22;63419;42.262;12.210;2022-11-11T12:54:14;27.10;95.70
74869;DHT22;63419;42.262;12.210;2022-11-11T12:56:57;27.00;94.60
74869;DHT22;63419;42.262;12.210;2022-11-11T13:00:30;27.30;95.00
74869;DHT22;63419;42.262;12.210;2022-11-11T13:16:54;24.50;95.60
74869;DHT22;63419;42.262;12.210;2022-11-11T13:19:32;25.00;96.20
74869;DHT22;63419;42.262;12.210;2022-11-11T13:22:40;24.60;95.40
74869;DHT22;63419;42.262;12.210;2022-11-11T13:25:16;24.60;96.30
74869;DHT22;63419;42.262;12.210;2022-11-11T13:28:08;25.40;95.70
74869;DHT22;63419;42.262;12.210;2022-11-11T13:34:04;24.90;95.30
74869;DHT22;63419;42.262;12.210;2022-11-11T13:36:51;24.60;96.20
74869;DHT22;63419;42.262;12.210;2022-11-11T13:39:28;24.80;95.90
74869;DHT22;63419;42.262;12.210;2022-11-11T13:42:04;24.90;96.00
74869;DHT22;63419;42.262;12.210;2022-11-11T13:44:53;24.90;95.40
74869;DHT22;63419;42.262;12.210;2022-11-11T13:47:46;24.80;96.00
74869;DHT22;63419;42.262;12.210;2022-11-11T13:50:28;24.90;95.30
74869;DHT22;63419;42.262;12.210;2022-11-11T13:53:05;24.90;95.50
74869;DHT22;63419;42.262;12.210;2022-11-11T13:55:49;24.80;95.70
74869;DHT22;63419;42.262;12.210;2022-11-11T13:58:35;24.70;96.00
74869;DHT22;63419;42.262;12.210;2022-11-11T14:01:07;24.40;96.20
74869;DHT22;63419;42.262;12.210;2022-11-11T14:06:48;24.60;96.30
74869;DHT22;63419;42.262;12.210;2022-11-11T14:09:57;24.70;96.10
74869;DHT22;63419;42.262;12.210;2022-11-11T14:12:39;24.70;95.20
74869;DHT22;63419;42.262;12.210;2022-11-11T14:15:47;24.80;95.90
74869;DHT22;63419;42.262;12.210;2022-11-11T14:20:53;25.20;95.10
74869;DHT22;63419;42.262;12.210;2022-11-11T14:23:43;25.20;94.70
74869;DHT22;63419;42.262;12.210;2022-11-11T14:26:26;24.90;95.80
74869;DHT22;63419;42.262;12.210;2022-11-11T14:29:00;24.70;95.10
74869;DHT22;63419;42.262;12.210;2022-11-11T14:31:54;24.10;95.90
74869;DHT22;63419;42.262;12.210;2022-11-11T14:34:44;24.20;96.30
74869;DHT22;63419;42.262;12.210;2022-11-11T14:37:27;24.30;96.60
74869;DHT22;63419;42.262;12.210;2022-11-11T14:40:12;24.20;96.40
74869;DHT22;63419;42.262;12.210;2022-11-11T14:42:59;24.00;96.40
74869;DHT22;63419;42.262;12.210;2022-11-11T14:45:54;24.10;96.30
74869;DHT22;63419;42.262;12.210;2022-11-11T14:48:59;23.90;96.20
74869;DHT22;63419;42.262;12.210;2022-11-11T14:51:52;23.60;96.60
74869;DHT22;63419;42.262;12.210;2022-11-11T14:58:00;23.70;96.60
74869;DHT22;63419;42.262;12.210;2022-11-11T15:06:29;23.60;97.40
74869;DHT22;63419;42.262;12.210;2022-11-11T15:11:43;23.90;96.70
74869;DHT22;63419;42.262;12.210;2022-11-11T15:18:22;23.20;97.30
74869;DHT22;63419;42.262;12.210;2022-11-11T15:21:07;23.00;97.50
74869;DHT22;63419;42.262;12.210;2022-11-11T15:24:16;22.90;97.50
74869;DHT22;63419;42.262;12.210;2022-11-11T15:27:06;22.00;98.50
74869;DHT22;63419;42.262;12.210;2022-11-11T15:30:14;21.30;99.40
74869;DHT22;63419;42.262;12.210;2022-11-11T15:38:37;20.80;99.90
74869;DHT22;63419;42.262;12.210;2022-11-11T15:41:27;20.90;99.90
74869;DHT22;63419;42.262;12.210;2022-11-11T15:44:12;20.80;99.90
74869;DHT22;63419;42.262;12.210;2022-11-11T15:47:00;20.70;99.90
74869;DHT22;63419;42.262;12.210;2022-11-11T15:49:47;20.50;99.90
74869;DHT22;63419;42.262;12.210;2022-11-11T15:52:35;20.10;99.90
74869;DHT22;63419;42.262;12.210;2022-11-11T15:55:29;19.50;99.90
74869;DHT22;63419;42.262;12.210;2022-11-11T15:58:23;19.00;99.90
74869;DHT22;63419;42.262;12.210;2022-11-11T16:00:57;18.10;99.90
74869;DHT22;63419;42.262;12.210;2022-11-11T16:03:40;17.50;99.90
74869;DHT22;63419;42.262;12.210;2022-11-11T16:06:14;17.00;99.90
74869;DHT22;63419;42.262;12.210;2022-11-11T16:08:43;16.70;99.90
74869;DHT22;63419;42.262;12.210;2022-11-11T16:11:18;16.60;99.90
74869;DHT22;63419;42.262;12.210;2022-11-11T16:14:01;16.50;99.90
74869;DHT22;63419;42.262;12.210;2022-11-11T16:16:37;16.30;99.90
74869;DHT22;63419;42.262;12.210;2022-11-11T16:22:20;16.00;99.90
74869;DHT22;63419;42.262;12.210;2022-11-11T16:24:54;15.90;99.90
74869;DHT22;63419;42.262;12.210;2022-11-11T16:27:31;15.90;99.90
74869;DHT22;63419;42.262;12.210;2022-11-11T16:33:03;15.70;99.90
74869;DHT22;63419;42.262;12.210;2022-11-11T16:35:35;15.70;99.90
74869;DHT22;63419;42.262;12.210;2022-11-11T16:38:07;15.60;99.90
74869;DHT22;63419;42.262;12.210;2022-11-11T16:40:42;15.50;99.90
74869;DHT22;63419;42.262;12.210;2022-11-11T16:46:08;15.30;99.90
74869;DHT22;63419;42.262;12.210;2022-11-11T16:48:49;15.20;99.90
74869;DHT22;63419;42.262;12.210;2022-11-11T16:51:24;15.20;99.90
74869;DHT22;63419;42.262;12.210;2022-11-11T16:54:15;15.10;99.90
74869;DHT22;63419;42.262;12.210;2022-11-11T16:56:50;15.10;99.90
74869;DHT22;63419;42.262;12.210;2022-11-11T16:59:44;14.80;99.90
74869;DHT22;63419;42.262;12.210;2022-11-11T17:02:25;14.70;99.90
74869;DHT22;63419;42.262;12.210;2022-11-11T17:04:57;14.70;99.90
74869;DHT22;63419;42.262;12.210;2022-11-11T17:07:40;14.80;99.90
74869;DHT22;63419;42.262;12.210;2022-11-11T17:10:14;14.70;99.90
74869;DHT22;63419;42.262;12.210;2022-11-11T17:12:44;14.50;99.90
74869;DHT22;63419;42.262;12.210;2022-11-11T17:15:14;14.30;99.90
74869;DHT22;63419;42.262;12.210;2022-11-11T17:17:44;14.20;99.90
74869;DHT22;63419;42.262;12.210;2022-11-11T17:20:16;14.20;99.90
74869;DHT22;63419;42.262;12.210;2022-11-11T17:22:57;14.20;99.90
74869;DHT22;63419;42.262;12.210;2022-11-11T17:25:32;14.10;99.90
74869;DHT22;63419;42.262;12.210;2022-11-11T17:28:11;14.00;99.90
74869;DHT22;63419;42.262;12.210;2022-11-11T17:30:38;14.00;99.90
74869;DHT22;63419;42.262;12.210;2022-11-11T17:33:08;14.10;99.90
74869;DHT22;63419;42.262;12.210;2022-11-11T17:35:38;14.00;99.90
74869;DHT22;63419;42.262;12.210;2022-11-11T17:38:07;13.90;99.90
74869;DHT22;63419;42.262;12.210;2022-11-11T17:40:44;13.90;99.90
74869;DHT22;63419;42.262;12.210;2022-11-11T17:43:14;13.90;99.90
74869;DHT22;63419;42.262;12.210;2022-11-11T17:45:46;14.00;99.90
74869;DHT22;63419;42.262;12.210;2022-11-11T17:48:21;13.90;99.90
74869;DHT22;63419;42.262;12.210;2022-11-11T17:50:53;13.80;99.90
74869;DHT22;63419;42.262;12.210;2022-11-11T17:53:32;13.60;99.90
74869;DHT22;63419;42.262;12.210;2022-11-11T17:56:05;13.50;99.90
74869;DHT22;63419;42.262;12.210;2022-11-11T17:58:37;13.50;99.90
74869;DHT22;63419;42.262;12.210;2022-11-11T18:01:09;13.40;99.90
74869;DHT22;63419;42.262;12.210;2022-11-11T18:03:43;13.40;99.90
74869;DHT22;63419;42.262;12.210;2022-11-11T18:06:12;13.50;99.90
74869;DHT22;63419;42.262;12.210;2022-11-11T18:08:40;13.50;99.90
74869;DHT22;63419;42.262;12.210;2022-11-11T18:11:10;13.50;99.90
74869;DHT22;63419;42.262;12.210;2022-11-11T18:13:38;13.40;99.90
74869;DHT22;63419;42.262;12.210;2022-11-11T18:16:12;13.50;99.90
74869;DHT22;63419;42.262;12.210;2022-11-11T18:18:51;13.40;99.90
74869;DHT22;63419;42.262;12.210;2022-11-11T18:21:22;13.40;99.90
74869;DHT22;63419;42.262;12.210;2022-11-11T18:23:49;13.30;99.90
74869;DHT22;63419;42.262;12.210;2022-11-11T18:26:18;13.20;99.90
74869;DHT22;63419;42.262;12.210;2022-11-11T18:28:48;13.10;99.90
74869;DHT22;63419;42.262;12.210;2022-11-11T18:31:16;13.10;99.90